Ambriz Airport


Codes: FNAM/AZZ
Name: Ambriz Airport
City: Ambriz
Country: Angola
Elevation: 144 ft.

Photos at Ambriz Airport


   Photos courtesy of SpottingLog. You can add your own sightings and photos by signing up for a free trial today.



No photos found.

Weather at Ambriz Airport


Time (UTC)DescriptionTempratureWindCloud coverageVisibilityPressureHumidity
17-Jun-2024 06:00Overcast Clouds21°C7 mph, SE100%10000m1015hPa91%
17-Jun-2024 09:00Overcast Clouds22°C7 mph, SE99%10000m1015hPa84%
17-Jun-2024 12:00Overcast Clouds24°C9 mph, SW99%10000m1013hPa74%
17-Jun-2024 15:00Overcast Clouds24°C11 mph, SW100%10000m1011hPa72%
17-Jun-2024 18:00Overcast Clouds22°C9 mph, SW94%10000m1012hPa89%
17-Jun-2024 21:00Overcast Clouds22°C7 mph, S99%10000m1014hPa92%
18-Jun-2024 00:00Overcast Clouds21°C7 mph, SE98%10000m1014hPa92%
18-Jun-2024 03:00Overcast Clouds20°C7 mph, SE98%10000m1013hPa93%
18-Jun-2024 06:00Overcast Clouds20°C7 mph, SE98%10000m1014hPa91%
18-Jun-2024 09:00Overcast Clouds24°C7 mph, S99%10000m1015hPa70%
18-Jun-2024 12:00Overcast Clouds25°C11 mph, SW98%10000m1012hPa67%
18-Jun-2024 15:00Broken Clouds24°C11 mph, SW82%10000m1011hPa74%
18-Jun-2024 18:00Scattered Clouds22°C9 mph, SW49%10000m1012hPa90%
18-Jun-2024 21:00Clear Sky21°C7 mph, S7%10000m1014hPa93%
19-Jun-2024 00:00Clear Sky21°C4 mph, SE10%10000m1014hPa94%
19-Jun-2024 03:00Broken Clouds21°C7 mph, SE80%10000m1012hPa90%
19-Jun-2024 06:00Broken Clouds20°C7 mph, SE69%10000m1013hPa91%
19-Jun-2024 09:00Clear Sky24°C9 mph, S10%10000m1014hPa72%
19-Jun-2024 12:00Few Clouds25°C9 mph, SW20%10000m1011hPa67%
19-Jun-2024 15:00Broken Clouds24°C9 mph, SW64%10000m1010hPa71%
19-Jun-2024 18:00Broken Clouds22°C9 mph, SW55%10000m1012hPa90%
19-Jun-2024 21:00Scattered Clouds21°C4 mph, SW49%10000m1014hPa92%
20-Jun-2024 00:00Scattered Clouds21°C4 mph, SE40%10000m1013hPa93%
20-Jun-2024 03:00Scattered Clouds21°C4 mph, SE46%10000m1013hPa90%
20-Jun-2024 06:00Broken Clouds21°C4 mph, S70%10000m1014hPa84%
20-Jun-2024 09:00Overcast Clouds24°C4 mph, S85%10000m1015hPa68%
20-Jun-2024 12:00Broken Clouds25°C9 mph, SW61%10000m1012hPa65%
20-Jun-2024 15:00Scattered Clouds24°C9 mph, SW34%10000m1011hPa69%
20-Jun-2024 18:00Few Clouds22°C9 mph, SW22%10000m1012hPa89%
20-Jun-2024 21:00Clear Sky21°C7 mph, S9%10000m1014hPa92%
21-Jun-2024 00:00Scattered Clouds21°C7 mph, S25%10000m1014hPa92%
21-Jun-2024 03:00Scattered Clouds20°C7 mph, S30%10000m1013hPa93%
21-Jun-2024 06:00Scattered Clouds21°C7 mph, SE43%10000m1014hPa90%
21-Jun-2024 09:00Few Clouds24°C7 mph, S23%10000m1015hPa72%
21-Jun-2024 12:00Scattered Clouds25°C11 mph, SW28%10000m1013hPa69%
21-Jun-2024 15:00Broken Clouds24°C9 mph, SW59%10000m1012hPa74%
21-Jun-2024 18:00Broken Clouds21°C9 mph, W57%10000m1012hPa90%
21-Jun-2024 21:00Clear Sky21°C4 mph, S6%10000m1014hPa92%
22-Jun-2024 00:00Clear Sky21°C2 mph, SW9%10000m1013hPa92%
22-Jun-2024 03:00Scattered Clouds20°C2 mph, SE26%10000m1013hPa92%